Time;durP1;ratioP1;P1;durP2;ratioP2;P2;SDS_P1;SDS_P2;PMS_P1;PMS_P2;Temp;Humidity;BMP_temperature;BMP_pressure;BME280_temperature;BME280_humidity;BME280_pressure;Samples;Min_cycle;Max_cycle;Signal;HPM_P1;HPM_P2
2021/12/09 00:01:32;;;;;;;7.05;3.53;;;0.40;99.90;;;;;;5070685;28;20052;-83
2021/12/09 00:04:03;;;;;;;11.48;4.00;;;2.60;99.90;;;;;;5054705;28;20123;-83
2021/12/09 00:06:30;;;;;;;7.40;3.38;;;2.60;99.90;;;;;;5070535;28;20093;-83
2021/12/09 00:09:00;;;;;;;9.98;3.78;;;3.30;99.90;;;;;;5055136;28;20081;-83
2021/12/09 00:11:28;;;;;;;10.57;3.35;;;2.70;99.90;;;;;;5070833;28;20044;-83
2021/12/09 00:13:54;;;;;;;8.50;3.72;;;3.30;99.90;;;;;;5038007;28;20040;-83
2021/12/09 00:16:20;;;;;;;11.65;3.75;;;2.70;99.90;;;;;;5054237;28;20483;-83
2021/12/09 00:18:46;;;;;;;4.63;3.03;;;2.60;99.90;;;;;;5037326;28;20106;-83
2021/12/09 00:21:12;;;;;;;4.65;3.35;;;2.60;99.90;;;;;;5054314;28;20050;-83
2021/12/09 00:23:38;;;;;;;9.68;3.97;;;2.60;99.90;;;;;;5053430;28;20040;-83
2021/12/09 00:26:04;;;;;;;5.45;3.20;;;2.60;99.90;;;;;;5054523;28;20040;-83
2021/12/09 00:28:30;;;;;;;8.75;3.70;;;2.60;99.90;;;;;;5053887;28;20058;-83
2021/12/09 00:30:55;;;;;;;8.43;4.20;;;2.60;99.90;;;;;;5054154;28;20040;-83
2021/12/09 00:33:21;;;;;;;9.43;3.42;;;2.60;99.90;;;;;;5053770;28;20048;-83
2021/12/09 00:35:55;;;;;;;7.85;3.80;;;4.60;99.90;;;;;;5070343;28;20152;-82
2021/12/09 00:38:33;;;;;;;9.30;4.15;;;2.60;99.90;;;;;;5070973;28;20055;-83
2021/12/09 00:41:00;;;;;;;8.07;4.60;;;2.50;99.90;;;;;;5070006;28;20503;-82
2021/12/09 00:43:26;;;;;;;12.50;4.20;;;2.50;99.90;;;;;;5071068;28;20492;-83
2021/12/09 00:45:52;;;;;;;5.72;3.83;;;2.90;99.90;;;;;;5070285;28;20140;-83
2021/12/09 00:48:18;;;;;;;9.85;4.53;;;2.50;99.90;;;;;;5053191;28;20113;-83
2021/12/09 00:50:44;;;;;;;7.25;3.15;;;2.70;99.90;;;;;;5088204;28;20487;-83
2021/12/09 00:53:10;;;;;;;5.15;3.60;;;2.30;99.90;;;;;;5069701;28;20055;-83
2021/12/09 00:55:36;;;;;;;9.20;3.75;;;2.80;99.90;;;;;;5053678;28;20123;-83
2021/12/09 00:58:02;;;;;;;10.32;4.03;;;2.20;99.90;;;;;;5069363;28;20056;-83
2021/12/09 01:00:31;;;;;;;9.88;4.60;;;2.20;99.90;;;;;;5053701;28;20040;-82
2021/12/09 01:02:58;;;;;;;10.95;4.50;;;2.10;99.90;;;;;;5070254;28;20112;-83
2021/12/09 01:05:24;;;;;;;9.40;4.25;;;2.10;99.90;;;;;;5053040;28;20080;-83
2021/12/09 01:07:50;;;;;;;6.75;4.15;;;3.50;99.90;;;;;;5053310;28;20044;-83
2021/12/09 01:10:17;;;;;;;8.45;3.78;;;3.40;99.90;;;;;;5087751;28;20044;-83
2021/12/09 01:12:44;;;;;;;8.52;4.60;;;3.40;99.90;;;;;;5053821;28;20073;-83
2021/12/09 01:15:13;;;;;;;10.52;4.85;;;2.80;99.90;;;;;;5069620;28;20120;-83
2021/12/09 01:17:39;;;;;;;8.20;4.78;;;1.90;99.90;;;;;;5069913;28;20028;-83
2021/12/09 01:20:08;;;;;;;8.50;4.55;;;4.20;99.90;;;;;;5053394;28;20054;-83
2021/12/09 01:22:39;;;;;;;9.32;5.18;;;1.90;99.90;;;;;;5053957;28;20051;-83
2021/12/09 01:25:07;;;;;;;8.90;4.80;;;1.90;99.90;;;;;;5054752;28;20129;-83
2021/12/09 01:27:35;;;;;;;14.15;5.18;;;1.90;99.90;;;;;;5070756;28;20059;-83
2021/12/09 01:30:08;;;;;;;12.57;4.55;;;1.80;99.90;;;;;;5070913;28;20437;-84
2021/12/09 01:32:34;;;;;;;16.33;5.32;;;1.80;99.90;;;;;;5070850;28;20414;-83
2021/12/09 01:35:00;;;;;;;8.82;4.80;;;1.70;99.90;;;;;;5053899;28;20050;-83
2021/12/09 01:37:26;;;;;;;15.07;5.13;;;1.70;99.90;;;;;;5069766;28;20314;-83
2021/12/09 01:39:51;;;;;;;10.82;5.15;;;1.70;99.90;;;;;;5052842;28;20043;-83
2021/12/09 01:42:17;;;;;;;8.88;4.93;;;1.60;99.90;;;;;;5052924;28;20487;-83
2021/12/09 01:44:43;;;;;;;10.77;4.45;;;1.60;99.90;;;;;;5068878;28;20044;-83
2021/12/09 01:47:09;;;;;;;7.55;4.80;;;1.60;99.90;;;;;;5087902;28;20051;-83
2021/12/09 01:49:35;;;;;;;6.25;4.40;;;1.50;99.90;;;;;;5035648;28;20040;-83
2021/12/09 01:52:01;;;;;;;7.97;4.97;;;1.60;99.90;;;;;;5069766;28;20071;-83
2021/12/09 01:54:27;;;;;;;13.98;5.22;;;1.60;99.90;;;;;;5069081;28;20483;-83
2021/12/09 01:56:52;;;;;;;9.50;5.18;;;1.60;99.90;;;;;;5068887;28;20108;-83
2021/12/09 01:59:18;;;;;;;12.68;5.55;;;1.60;99.90;;;;;;5069217;28;20052;-83
2021/12/09 02:01:44;;;;;;;15.32;6.13;;;1.70;99.90;;;;;;5068533;28;20036;-83
2021/12/09 02:04:11;;;;;;;15.20;6.07;;;4.00;99.90;;;;;;5052781;28;20553;-83
2021/12/09 02:06:40;;;;;;;12.98;6.78;;;1.80;99.90;;;;;;5051999;28;20044;-84
2021/12/09 02:09:08;;;;;;;8.73;5.57;;;1.90;99.90;;;;;;5052996;28;20036;-83
2021/12/09 02:11:34;;;;;;;14.43;6.47;;;1.90;99.90;;;;;;5068955;28;20066;-83
2021/12/09 02:14:00;;;;;;;8.93;5.72;;;1.90;99.90;;;;;;5087096;28;20047;-83
2021/12/09 02:16:26;;;;;;;14.15;6.07;;;1.00;99.90;;;;;;5087324;28;20048;-83
2021/12/09 02:18:53;;;;;;;10.95;5.75;;;4.10;99.90;;;;;;5051201;28;20060;-83
2021/12/09 02:21:25;;;;;;;10.38;5.97;;;2.00;99.90;;;;;;5052716;28;20063;-83
2021/12/09 02:23:54;;;;;;;7.97;4.53;;;2.00;99.90;;;;;;5068658;28;20381;-83
2021/12/09 02:26:26;;;;;;;12.82;5.93;;;2.00;99.90;;;;;;5068824;28;20059;-83
2021/12/09 02:28:54;;;;;;;12.43;6.22;;;3.50;99.90;;;;;;5068842;28;20121;-83
2021/12/09 02:31:22;;;;;;;15.35;6.03;;;2.00;99.90;;;;;;5068184;28;20162;-83
2021/12/09 02:33:47;;;;;;;11.32;6.07;;;2.00;99.90;;;;;;5069310;28;20040;-83
2021/12/09 02:36:14;;;;;;;13.07;6.28;;;4.40;99.90;;;;;;5086557;28;20048;-83
2021/12/09 02:38:44;;;;;;;10.02;5.95;;;2.00;99.90;;;;;;5087293;28;20129;-83
2021/12/09 02:41:17;;;;;;;14.95;6.47;;;3.20;99.90;;;;;;5052919;28;20550;-83
2021/12/09 02:43:44;;;;;;;;;;;2.00;99.90;;;;;;5087601;28;20118;-83
2021/12/09 02:46:10;;;;;;;10.45;5.35;;;3.10;99.90;;;;;;5087033;28;19928;-83
2021/12/09 02:48:36;;;;;;;15.20;5.88;;;2.00;99.90;;;;;;5067979;28;20119;-83
2021/12/09 02:51:05;;;;;;;18.75;6.28;;;2.70;99.90;;;;;;5052300;28;20139;-83
2021/12/09 02:53:33;;;;;;;8.75;5.00;;;1.90;99.90;;;;;;5067702;28;20051;-83
2021/12/09 02:55:58;;;;;;;12.88;6.10;;;3.30;99.90;;;;;;5068978;28;20535;-83
2021/12/09 02:58:24;;;;;;;9.10;5.40;;;3.20;99.90;;;;;;5068860;28;20076;-83
2021/12/09 03:01:12;;;;;;;13.65;6.10;;;1.90;99.90;;;;;;5051607;28;20123;-83
2021/12/09 03:03:49;;;;;;;18.45;6.85;;;1.80;99.90;;;;;;5087265;28;20090;-83
2021/12/09 03:06:15;;;;;;;14.05;6.13;;;1.80;99.90;;;;;;5068255;28;20032;-82
2021/12/09 03:08:42;;;;;;;16.65;6.28;;;1.80;99.90;;;;;;5069178;28;20589;-83
2021/12/09 03:11:12;;;;;;;14.48;6.38;;;1.80;99.90;;;;;;5068901;28;20110;-83
2021/12/09 03:13:41;;;;;;;15.73;6.50;;;2.30;99.90;;;;;;5090284;28;20040;-83
2021/12/09 03:16:08;;;;;;;10.18;5.78;;;1.80;99.90;;;;;;5090537;28;20082;-83
2021/12/09 03:18:43;;;;;;;16.58;7.18;;;1.80;99.90;;;;;;5071605;28;20131;-83
2021/12/09 03:21:17;;;;;;;16.65;6.28;;;1.70;99.90;;;;;;5072156;28;20056;-83
2021/12/09 03:23:42;;;;;;;8.10;5.10;;;1.70;99.90;;;;;;5038551;28;20056;-83
2021/12/09 03:26:08;;;;;;;18.80;6.55;;;2.90;99.90;;;;;;5072296;28;20502;-83
2021/12/09 03:28:34;;;;;;;11.00;6.78;;;1.70;99.90;;;;;;5072087;28;20111;-83
2021/12/09 03:31:00;;;;;;;12.90;5.93;;;3.60;99.90;;;;;;5071413;28;20046;-83
2021/12/09 03:33:26;;;;;;;17.63;7.15;;;1.60;99.90;;;;;;5090450;28;20046;-83
2021/12/09 03:36:04;;;;;;;13.40;6.50;;;1.70;99.90;;;;;;5071242;28;20051;-83
2021/12/09 03:38:30;;;;;;;12.63;6.28;;;1.60;99.90;;;;;;5072946;28;20056;-83
2021/12/09 03:40:56;;;;;;;11.05;6.55;;;1.60;99.90;;;;;;5055642;28;20093;-83
2021/12/09 03:43:23;;;;;;;18.52;7.25;;;1.60;99.90;;;;;;5091148;28;20044;-83
2021/12/09 03:45:50;;;;;;;10.30;5.60;;;1.60;99.90;;;;;;5072227;28;20048;-83
2021/12/09 03:48:16;;;;;;;14.27;6.97;;;2.70;99.90;;;;;;5056175;28;20074;-82
2021/12/09 03:50:43;;;;;;;11.30;6.80;;;1.60;99.90;;;;;;5090824;28;20416;-82
2021/12/09 03:53:09;;;;;;;21.90;6.90;;;2.70;99.90;;;;;;5071312;28;20048;-83
2021/12/09 03:55:35;;;;;;;11.82;6.88;;;1.70;99.90;;;;;;5089797;28;20040;-83
2021/12/09 03:58:01;;;;;;;11.45;6.18;;;1.60;99.90;;;;;;5071159;28;20134;-83
2021/12/09 04:00:28;;;;;;;22.80;6.88;;;1.70;99.90;;;;;;5071299;28;20036;-83
2021/12/09 04:02:54;;;;;;;9.20;6.47;;;1.60;99.90;;;;;;5054490;28;20053;-83
2021/12/09 04:05:20;;;;;;;13.80;5.97;;;1.60;99.90;;;;;;5071261;28;20499;-83
2021/12/09 04:07:46;;;;;;;21.30;7.20;;;1.60;99.90;;;;;;5071712;28;20130;-83
2021/12/09 04:10:11;;;;;;;10.68;6.18;;;1.60;99.90;;;;;;5053633;28;20054;-83
2021/12/09 04:12:37;;;;;;;13.27;6.47;;;1.60;99.90;;;;;;5054535;28;20051;-83
2021/12/09 04:15:04;;;;;;;11.93;6.13;;;1.50;99.90;;;;;;5071346;28;20127;-83
2021/12/09 04:17:30;;;;;;;12.63;6.57;;;1.50;99.90;;;;;;5054243;28;20040;-83
2021/12/09 04:19:56;;;;;;;11.63;6.38;;;1.40;99.90;;;;;;5054386;28;20113;-83
2021/12/09 04:22:22;;;;;;;19.77;6.70;;;1.30;99.90;;;;;;5089051;28;20429;-83
2021/12/09 04:24:49;;;;;;;16.35;6.68;;;1.50;99.90;;;;;;5089411;28;20044;-83
2021/12/09 04:27:17;;;;;;;16.27;7.35;;;1.30;99.90;;;;;;5088318;28;20050;-83
2021/12/09 04:29:43;;;;;;;14.30;6.47;;;1.20;99.90;;;;;;5089079;28;20044;-82
2021/12/09 04:32:09;;;;;;;13.70;6.35;;;3.50;99.90;;;;;;5054393;28;20039;-83
2021/12/09 04:34:35;;;;;;;14.18;6.38;;;1.40;99.90;;;;;;5070728;28;20340;-83
2021/12/09 04:37:01;;;;;;;19.40;7.05;;;1.10;99.90;;;;;;5070863;28;20110;-83
2021/12/09 04:39:27;;;;;;;15.70;6.57;;;1.10;99.90;;;;;;5053660;28;20483;-83
2021/12/09 04:41:54;;;;;;;11.35;6.93;;;1.10;99.90;;;;;;5070560;28;20101;-83
2021/12/09 04:44:20;;;;;;;13.68;6.55;;;1.10;99.90;;;;;;5053085;28;20044;-83
2021/12/09 04:46:46;;;;;;;15.90;6.43;;;1.00;99.90;;;;;;5070847;28;20036;-83
2021/12/09 04:49:12;;;;;;;9.98;6.25;;;1.00;99.90;;;;;;5070480;28;20494;-82
2021/12/09 04:51:37;;;;;;;13.23;6.35;;;1.10;99.90;;;;;;5053679;28;20097;-83
2021/12/09 04:54:05;;;;;;;11.25;6.82;;;1.00;99.90;;;;;;5070102;28;20069;-83
2021/12/09 04:56:31;;;;;;;13.45;7.43;;;1.00;99.90;;;;;;5070229;28;20052;-82
2021/12/09 04:58:57;;;;;;;8.80;6.18;;;1.00;99.90;;;;;;5053630;28;20043;-83
2021/12/09 05:01:23;;;;;;;14.02;6.78;;;1.00;99.90;;;;;;5069657;28;20420;-82
2021/12/09 05:03:49;;;;;;;14.10;6.63;;;1.00;99.90;;;;;;5053704;28;20036;-83
2021/12/09 05:06:16;;;;;;;16.23;6.95;;;3.30;99.90;;;;;;5036449;28;20036;-82
2021/12/09 05:08:48;;;;;;;11.52;6.38;;;0.90;99.90;;;;;;5070436;28;20047;-83
2021/12/09 05:12:01;;;;;;;15.23;6.63;;;0.90;99.90;;;;;;5071301;28;20048;-82
2021/12/09 05:14:04;;;;;;;14.63;6.95;;;0.90;99.90;;;;;;5052572;28;20059;-83
2021/12/09 05:16:30;;;;;;;13.25;6.70;;;0.90;99.90;;;;;;5070209;28;20044;-82
2021/12/09 05:18:59;;;;;;;12.63;6.00;;;0.90;99.90;;;;;;5087133;28;20113;-82
2021/12/09 05:21:36;;;;;;;9.70;6.05;;;0.80;99.90;;;;;;5069831;28;20040;-83
2021/12/09 05:24:07;;;;;;;13.38;6.78;;;0.80;99.90;;;;;;5053043;28;20491;-83
2021/12/09 05:26:41;;;;;;;14.07;6.50;;;0.80;99.90;;;;;;5069258;28;20542;-83
2021/12/09 05:29:07;;;;;;;10.15;6.47;;;0.70;99.90;;;;;;5070304;28;20044;-83
2021/12/09 05:34:18;;;;;;;12.23;6.60;;;0.70;99.90;;;;;;5055323;28;20048;-82
2021/12/09 05:36:44;;;;;;;12.07;6.90;;;0.60;99.90;;;;;;5069707;28;20044;-83
2021/12/09 05:39:11;;;;;;;18.63;7.30;;;0.60;99.90;;;;;;5035869;28;20403;-83
2021/12/09 05:41:39;;;;;;;10.50;5.82;;;0.80;99.90;;;;;;5069838;28;20560;-83
2021/12/09 05:44:06;;;;;;;19.17;7.10;;;0.60;99.90;;;;;;5069120;28;20398;-83
2021/12/09 05:46:34;;;;;;;15.00;6.60;;;1.50;99.90;;;;;;5088420;28;20396;-83
2021/12/09 05:49:00;;;;;;;12.07;6.60;;;0.50;99.90;;;;;;5071543;28;20542;-86
2021/12/09 05:51:27;;;;;;;13.70;6.93;;;0.50;99.90;;;;;;5090299;28;20071;-85
2021/12/09 05:53:55;;;;;;;11.80;6.72;;;0.50;99.90;;;;;;5072000;28;20032;-85
2021/12/09 05:56:22;;;;;;;12.75;7.15;;;0.50;99.90;;;;;;5038617;28;20101;-85
2021/12/09 05:58:48;;;;;;;10.95;6.15;;;0.50;99.90;;;;;;5069275;28;20074;-84
2021/12/09 06:01:14;;;;;;;11.50;6.45;;;0.40;99.90;;;;;;5053368;28;20040;-85
2021/12/09 06:03:40;;;;;;;13.95;7.15;;;0.40;99.90;;;;;;5038999;28;20079;-84
2021/12/09 06:06:07;;;;;;;13.13;6.72;;;0.40;99.90;;;;;;5073149;28;20048;-85
2021/12/09 06:08:36;;;;;;;11.18;7.75;;;0.30;99.90;;;;;;5086225;28;20402;-84
2021/12/09 06:11:03;;;;;;;12.75;7.28;;;-0.60;99.90;;;;;;5071253;28;20115;-84
2021/12/09 06:13:31;;;;;;;12.55;7.53;;;0.30;99.90;;;;;;5087440;28;20418;-87
2021/12/09 06:15:58;;;;;;;11.05;7.13;;;0.40;99.90;;;;;;5053021;28;20487;-86
2021/12/09 06:18:24;;;;;;;12.68;7.18;;;0.30;99.90;;;;;;5067932;28;20139;-86
2021/12/09 06:20:50;;;;;;;12.70;7.13;;;-1.30;99.90;;;;;;5069289;28;20147;-86
2021/12/09 06:23:16;;;;;;;16.40;8.02;;;2.30;99.90;;;;;;5068467;28;20119;-86
2021/12/09 06:25:42;;;;;;;12.30;7.80;;;2.20;99.90;;;;;;5035955;28;20040;-86
2021/12/09 06:28:08;;;;;;;15.85;6.88;;;0.20;99.90;;;;;;5035279;28;20135;-88
2021/12/09 06:30:34;;;;;;;17.83;7.82;;;0.20;99.90;;;;;;5049837;28;20242;-84
2021/12/09 06:33:00;;;;;;;13.57;7.50;;;0.20;99.90;;;;;;5087147;28;20044;-86
2021/12/09 06:35:27;;;;;;;16.13;7.72;;;0.30;99.90;;;;;;5042958;28;20094;-86
2021/12/09 06:37:54;;;;;;;16.17;7.85;;;2.50;99.90;;;;;;5016082;28;20107;-89
2021/12/09 06:40:22;;;;;;;15.70;7.90;;;2.00;99.90;;;;;;5031610;28;20040;-86
2021/12/09 06:42:49;;;;;;;13.20;7.60;;;0.40;99.90;;;;;;5066663;28;20045;-85
2021/12/09 06:45:17;;;;;;;17.92;8.18;;;0.50;99.90;;;;;;5048485;28;20136;-85
2021/12/09 06:47:43;;;;;;;15.70;8.85;;;2.50;99.90;;;;;;5034082;28;20269;-86
2021/12/09 06:50:11;;;;;;;20.23;7.80;;;0.50;99.90;;;;;;5052806;28;20056;-85
2021/12/09 06:52:37;;;;;;;14.70;8.13;;;0.50;99.90;;;;;;5035315;28;20496;-85
2021/12/09 06:55:05;;;;;;;16.13;7.35;;;0.50;99.90;;;;;;5036529;28;20048;-87
2021/12/09 06:57:31;;;;;;;16.48;8.70;;;0.50;99.90;;;;;;5018992;28;20491;-84
2021/12/09 06:59:56;;;;;;;13.48;7.55;;;0.50;99.90;;;;;;5078903;28;20055;-84
2021/12/09 07:02:22;;;;;;;19.40;8.57;;;0.40;99.90;;;;;;5087241;28;20123;-84
2021/12/09 07:04:48;;;;;;;14.80;7.32;;;2.50;99.90;;;;;;5087915;28;20423;-84
2021/12/09 07:07:14;;;;;;;17.13;8.38;;;0.30;99.90;;;;;;5088826;28;20051;-84
2021/12/09 07:09:40;;;;;;;14.93;8.70;;;0.30;99.90;;;;;;5071172;28;20134;-84
2021/12/09 07:12:07;;;;;;;15.70;7.82;;;0.30;99.90;;;;;;5072461;28;20495;-84
2021/12/09 07:14:33;;;;;;;14.02;7.93;;;-0.70;99.90;;;;;;5072310;28;20052;-84
2021/12/09 07:16:58;;;;;;;20.70;7.88;;;0.30;99.90;;;;;;5056168;28;20561;-83
2021/12/09 07:19:24;;;;;;;13.23;7.32;;;0.20;99.90;;;;;;5072963;28;20056;-84
2021/12/09 07:21:50;;;;;;;12.32;7.63;;;0.20;99.90;;;;;;5088901;28;20048;-84
2021/12/09 07:24:16;;;;;;;18.33;7.72;;;0.20;99.90;;;;;;5088835;28;20134;-84
2021/12/09 07:26:41;;;;;;;18.40;8.40;;;0.70;99.90;;;;;;5088370;28;20050;-84
2021/12/09 07:29:07;;;;;;;18.73;8.52;;;0.20;99.90;;;;;;5055680;28;20036;-85
2021/12/09 07:31:33;;;;;;;13.38;7.57;;;0.70;99.90;;;;;;5088020;28;20100;-84
2021/12/09 07:34:00;;;;;;;15.07;8.07;;;0.20;99.90;;;;;;5071877;28;20093;-84
2021/12/09 07:36:26;;;;;;;19.40;7.72;;;0.20;99.90;;;;;;5088528;28;20060;-84
2021/12/09 07:38:53;;;;;;;12.32;7.65;;;0.20;99.90;;;;;;5088329;28;20040;-81
2021/12/09 07:41:19;;;;;;;16.35;7.05;;;0.10;99.90;;;;;;5089703;28;20506;-85
2021/12/09 07:43:45;;;;;;;16.42;9.10;;;0.10;99.90;;;;;;5071255;28;20032;-84
2021/12/09 07:46:11;;;;;;;15.20;8.20;;;0.10;99.90;;;;;;5071981;28;20036;-84
2021/12/09 07:48:37;;;;;;;24.45;9.48;;;0.10;99.90;;;;;;5087743;28;20024;-84
2021/12/09 07:51:03;;;;;;;13.90;7.75;;;0.90;99.90;;;;;;5071491;28;20139;-84
2021/12/09 07:53:29;;;;;;;15.25;9.02;;;0.10;99.90;;;;;;5071287;28;20047;-84
2021/12/09 07:55:56;;;;;;;18.85;8.02;;;0.20;99.90;;;;;;5090277;28;20051;-85
2021/12/09 07:58:22;;;;;;;13.60;8.38;;;0.20;99.90;;;;;;5073725;28;20082;-86
2021/12/09 08:00:48;;;;;;;14.73;8.32;;;0.20;99.90;;;;;;5090682;28;20397;-85
2021/12/09 08:03:17;;;;;;;15.75;8.10;;;0.10;99.90;;;;;;5071248;28;20146;-85
2021/12/09 08:05:47;;;;;;;18.05;10.20;;;0.00;99.90;;;;;;5073138;28;20058;-85
2021/12/09 08:08:13;;;;;;;26.45;10.13;;;0.10;99.90;;;;;;5057932;28;20496;-85
2021/12/09 08:10:39;;;;;;;14.00;8.43;;;0.20;99.90;;;;;;5090720;28;20395;-85
2021/12/09 08:13:07;;;;;;;13.55;8.20;;;2.20;99.90;;;;;;5087591;28;20040;-85
2021/12/09 08:15:37;;;;;;;19.88;7.60;;;0.20;99.90;;;;;;5054825;28;20040;-85
2021/12/09 08:20:51;;;;;;;11.90;5.87;;;0.20;99.90;;;;;;5087941;28;20402;-84
2021/12/09 08:23:18;;;;;;;12.30;7.00;;;1.80;99.90;;;;;;5070882;28;20445;-85
2021/12/09 08:25:44;;;;;;;17.67;7.97;;;0.20;99.90;;;;;;5036854;28;20050;-86
2021/12/09 08:28:11;;;;;;;19.02;8.05;;;0.30;99.90;;;;;;5070436;28;20544;-85
2021/12/09 08:30:38;;;;;;;15.57;8.52;;;0.30;99.90;;;;;;5070366;28;20063;-85
2021/12/09 08:33:07;;;;;;;18.70;7.97;;;0.30;99.90;;;;;;5070709;28;20711;-85
2021/12/09 08:35:34;;;;;;;17.30;7.32;;;0.40;99.90;;;;;;5069703;28;20109;-86
2021/12/09 08:38:00;;;;;;;14.90;7.10;;;2.30;99.90;;;;;;5070926;28;20040;-85
2021/12/09 08:40:26;;;;;;;16.63;8.65;;;2.40;99.90;;;;;;5069534;28;20059;-86
2021/12/09 08:42:53;;;;;;;22.73;8.52;;;0.50;99.90;;;;;;5070364;28;20040;-85
2021/12/09 08:45:20;;;;;;;21.88;8.93;;;0.50;99.90;;;;;;5087269;28;20082;-85
2021/12/09 08:47:47;;;;;;;15.90;8.40;;;0.60;99.90;;;;;;5070132;28;20047;-85
2021/12/09 08:50:19;;;;;;;12.80;7.57;;;0.60;99.90;;;;;;5087281;28;20044;-86
2021/12/09 08:52:47;;;;;;;14.35;7.75;;;0.60;99.90;;;;;;5069815;28;20418;-85
2021/12/09 08:55:13;;;;;;;20.88;8.82;;;2.10;99.90;;;;;;5053918;28;20040;-85
2021/12/09 08:57:39;;;;;;;15.20;7.38;;;0.70;99.90;;;;;;5053104;28;20044;-85
2021/12/09 09:00:12;;;;;;;19.35;8.23;;;0.80;99.90;;;;;;5053368;28;20181;-85
2021/12/09 09:02:43;;;;;;;24.55;7.75;;;0.90;99.90;;;;;;5068743;28;20055;-85
2021/12/09 09:05:11;;;;;;;22.00;8.35;;;1.80;99.90;;;;;;5086784;28;20135;-85
2021/12/09 09:07:48;;;;;;;16.65;7.63;;;1.00;99.90;;;;;;5070480;28;20040;-85
2021/12/09 09:10:18;;;;;;;16.70;8.65;;;1.10;99.90;;;;;;5052057;28;20100;-84
2021/12/09 09:12:45;;;;;;;17.67;7.03;;;1.10;99.90;;;;;;5086695;28;20601;-84
2021/12/09 09:15:14;;;;;;;13.45;7.57;;;1.30;99.90;;;;;;5086585;28;20380;-85
2021/12/09 09:17:40;;;;;;;18.10;7.97;;;2.30;99.90;;;;;;5086500;28;20097;-85
2021/12/09 09:20:08;;;;;;;15.52;7.80;;;2.20;99.90;;;;;;5086803;28;20392;-89
2021/12/09 09:22:36;;;;;;;14.63;7.38;;;1.50;99.90;;;;;;5069227;28;20087;-85
2021/12/09 09:25:02;;;;;;;15.65;6.82;;;1.60;99.90;;;;;;5053442;28;20047;-85
2021/12/09 09:27:28;;;;;;;20.48;8.30;;;1.60;99.90;;;;;;5036486;28;20047;-85
2021/12/09 09:29:53;;;;;;;15.00;7.45;;;1.60;99.90;;;;;;5053042;28;20037;-83
2021/12/09 09:32:19;;;;;;;13.68;6.60;;;2.00;99.90;;;;;;5087002;28;20127;-84
2021/12/09 09:34:45;;;;;;;17.35;6.82;;;1.80;99.90;;;;;;5052742;28;20048;-85
2021/12/09 09:37:11;;;;;;;13.93;6.55;;;1.90;99.90;;;;;;5069851;28;20036;-84
2021/12/09 09:39:41;;;;;;;11.32;7.25;;;1.90;99.90;;;;;;5085867;28;20043;-85
2021/12/09 09:44:54;;;;;;;14.00;6.50;;;2.00;99.90;;;;;;5070008;28;20535;-84
2021/12/09 09:47:22;;;;;;;13.40;6.60;;;2.10;99.90;;;;;;5086365;28;20454;-84
2021/12/09 09:49:49;;;;;;;13.73;7.30;;;2.20;99.90;;;;;;5069246;28;20128;-84
2021/12/09 09:52:15;;;;;;;14.40;6.80;;;2.30;99.90;;;;;;5085000;28;20048;-85
2021/12/09 09:54:41;;;;;;;16.35;5.80;;;2.40;99.90;;;;;;5069392;28;20040;-85
2021/12/09 09:57:10;;;;;;;10.98;5.90;;;2.40;99.90;;;;;;5085129;28;20051;-84
2021/12/09 09:59:40;;;;;;;20.80;6.72;;;4.70;99.90;;;;;;5069335;28;20044;-84
2021/12/09 10:02:07;;;;;;;15.90;5.78;;;2.60;99.90;;;;;;5069282;28;20091;-85
2021/12/09 10:04:44;;;;;;;10.52;6.00;;;2.70;99.90;;;;;;5068827;28;20499;-85
2021/12/09 10:07:11;;;;;;;18.48;6.43;;;2.70;99.90;;;;;;5069114;28;20051;-85
2021/12/09 10:09:38;;;;;;;15.50;5.80;;;3.30;99.90;;;;;;5069597;28;20035;-85
2021/12/09 10:12:05;;;;;;;16.58;6.13;;;2.80;99.90;;;;;;5071063;28;20495;-85
2021/12/09 10:14:33;;;;;;;9.93;5.38;;;2.90;99.90;;;;;;5054071;28;20174;-87
2021/12/09 10:17:10;;;;;;;18.55;6.32;;;3.00;99.90;;;;;;5087734;28;20063;-85
2021/12/09 10:19:47;;;;;;;18.77;5.57;;;3.00;99.90;;;;;;5069859;28;20522;-85
2021/12/09 10:22:16;;;;;;;8.93;4.63;;;5.20;99.90;;;;;;5086025;28;20154;-85
2021/12/09 10:24:44;;;;;;;8.02;4.53;;;4.80;99.90;;;;;;5086245;28;20642;-85
2021/12/09 10:27:28;;;;;;;13.45;5.00;;;5.60;99.90;;;;;;5067656;28;20052;-85
2021/12/09 10:29:59;;;;;;;10.35;5.13;;;3.40;99.90;;;;;;5068569;28;20048;-85
2021/12/09 10:32:30;;;;;;;9.60;4.53;;;4.10;99.90;;;;;;5069602;28;20050;-85
2021/12/09 10:35:01;;;;;;;7.80;4.13;;;3.30;99.90;;;;;;5084661;28;20368;-87
2021/12/09 10:37:29;;;;;;;14.88;5.22;;;3.30;99.90;;;;;;5068001;28;20048;-85
2021/12/09 10:39:58;;;;;;;14.25;4.88;;;4.70;99.90;;;;;;5085391;28;20434;-86
2021/12/09 10:42:36;;;;;;;10.80;4.38;;;3.50;99.90;;;;;;5085896;28;20090;-86
2021/12/09 10:45:17;;;;;;;15.15;4.95;;;3.50;99.90;;;;;;5085768;28;20488;-84
2021/12/09 10:48:01;;;;;;;14.68;4.60;;;3.50;99.90;;;;;;5085774;28;20438;-84
2021/12/09 10:53:16;;;;;;;12.05;4.70;;;3.60;99.90;;;;;;5084929;28;20129;-85
2021/12/09 10:55:42;;;;;;;11.85;4.85;;;3.70;99.90;;;;;;5085311;28;20078;-84
2021/12/09 10:58:13;;;;;;;15.65;5.40;;;3.70;99.90;;;;;;5068931;28;20044;-84
2021/12/09 11:00:41;;;;;;;14.95;5.55;;;3.70;99.90;;;;;;5085032;28;20047;-86
2021/12/09 11:03:13;;;;;;;11.13;4.93;;;3.70;99.90;;;;;;5067443;28;20042;-85
2021/12/09 11:05:45;;;;;;;8.80;4.82;;;3.70;99.90;;;;;;5067142;28;20447;-84
2021/12/09 11:08:17;;;;;;;18.42;6.20;;;3.70;99.90;;;;;;5085682;28;20044;-85
2021/12/09 11:10:48;;;;;;;10.55;4.68;;;3.70;99.90;;;;;;5085017;28;20138;-85
2021/12/09 11:13:21;;;;;;;16.67;5.25;;;3.60;99.90;;;;;;5085225;28;20135;-84
2021/12/09 11:15:57;;;;;;;10.32;5.32;;;3.60;99.90;;;;;;5068608;28;20036;-85
2021/12/09 11:18:40;;;;;;;11.27;5.85;;;3.60;99.90;;;;;;5067773;28;20056;-85
2021/12/09 11:21:14;;;;;;;15.93;6.05;;;3.60;99.90;;;;;;5085167;28;20564;-84
2021/12/09 11:23:43;;;;;;;8.63;5.55;;;3.60;99.90;;;;;;5085536;28;20098;-85
2021/12/09 11:27:01;;;;;;;13.90;6.75;;;3.60;99.90;;;;;;5085107;28;20048;-85
2021/12/09 11:29:30;;;;;;;12.45;5.13;;;3.60;99.90;;;;;;5087102;28;20403;-86
2021/12/09 11:32:14;;;;;;;14.02;5.68;;;5.10;99.90;;;;;;5068595;28;20373;-86
2021/12/09 11:34:46;;;;;;;12.73;5.63;;;3.50;99.90;;;;;;5087791;28;20055;-85
2021/12/09 11:39:53;;;;;;;10.07;5.45;;;3.90;99.90;;;;;;5088100;28;20052;-84
2021/12/09 11:42:28;;;;;;;15.18;5.57;;;3.50;99.90;;;;;;5038613;28;20089;-85
2021/12/09 11:44:54;;;;;;;12.82;5.93;;;3.30;99.90;;;;;;5088113;28;20461;-88
2021/12/09 11:47:20;;;;;;;21.08;6.38;;;3.50;99.90;;;;;;5071122;28;20040;-87
2021/12/09 11:49:47;;;;;;;12.85;5.85;;;5.50;99.90;;;;;;5054842;28;20051;-86
2021/12/09 11:52:16;;;;;;;16.80;5.72;;;5.00;99.90;;;;;;5069732;28;20036;-86
2021/12/09 11:54:55;;;;;;;20.75;5.97;;;3.20;99.90;;;;;;5055077;28;20044;-86
2021/12/09 11:57:44;;;;;;;14.88;5.82;;;3.20;99.90;;;;;;5071475;28;20135;-85
2021/12/09 12:21:05;;;;;;;14.52;6.78;;;3.10;99.90;;;;;;5069672;28;20059;-84
2021/12/09 12:37:42;;;;;;;13.52;6.75;;;3.20;99.90;;;;;;5088090;28;20202;-83
2021/12/09 12:40:10;;;;;;;21.63;7.30;;;3.20;99.90;;;;;;5071067;28;20044;-83
2021/12/09 12:42:58;;;;;;;14.52;6.90;;;3.20;99.90;;;;;;5087727;28;20410;-82
2021/12/09 12:51:11;;;;;;;11.15;5.53;;;3.30;99.90;;;;;;5087288;28;20047;-83
2021/12/09 12:53:43;;;;;;;17.58;6.40;;;3.30;99.90;;;;;;5071025;28;20048;-82
2021/12/09 12:56:31;;;;;;;;;;;;;;;;;;;;;
2021/12/09 12:59:11;;;;;;;20.30;6.22;;;3.20;99.90;;;;;;5085329;28;20058;-82
2021/12/09 13:02:13;;;;;;;14.68;7.03;;;3.10;99.90;;;;;;5069935;28;20043;-82
2021/12/09 13:10:21;;;;;;;16.48;7.32;;;3.40;99.90;;;;;;5086587;28;20059;-82
2021/12/09 13:13:07;;;;;;;12.10;6.32;;;3.40;99.90;;;;;;5085946;28;20451;-82
2021/12/09 13:15:44;;;;;;;19.73;7.32;;;3.40;99.90;;;;;;5069468;28;20127;-82
2021/12/09 13:18:44;;;;;;;14.68;7.40;;;5.00;99.90;;;;;;5054149;28;20060;-82
2021/12/09 13:21:47;;;;;;;14.68;6.85;;;3.50;99.90;;;;;;5085140;28;20040;-82
2021/12/09 13:24:32;;;;;;;26.70;8.20;;;3.50;99.90;;;;;;5084611;28;20134;-82
2021/12/09 13:35:48;;;;;;;19.98;7.05;;;3.50;99.90;;;;;;5084989;28;20394;-82
2021/12/09 13:46:42;;;;;;;22.17;8.82;;;3.60;99.90;;;;;;5031852;28;20045;-82
2021/12/09 13:54:25;;;;;;;14.80;8.02;;;2.90;99.90;;;;;;5069456;28;20135;-82
2021/12/09 13:57:06;;;;;;;19.83;8.35;;;3.60;99.90;;;;;;5083297;28;20137;-82
2021/12/09 13:59:36;;;;;;;19.40;8.43;;;3.50;99.90;;;;;;5085025;28;20055;-82
2021/12/09 14:02:17;;;;;;;14.52;7.90;;;4.60;99.90;;;;;;5085180;28;20177;-81
2021/12/09 14:04:43;;;;;;;20.00;8.73;;;3.60;99.90;;;;;;5064828;28;20102;-82
2021/12/09 14:07:25;;;;;;;20.38;8.57;;;3.90;99.90;;;;;;5067320;28;20044;-82
2021/12/09 14:10:04;;;;;;;16.45;7.47;;;3.60;99.90;;;;;;5052546;28;20040;-82
2021/12/09 14:12:40;;;;;;;16.17;7.72;;;3.60;99.90;;;;;;5085178;28;20427;-82
2021/12/09 14:15:12;;;;;;;14.93;7.95;;;5.70;99.90;;;;;;5084774;28;20079;-82
2021/12/09 14:17:41;;;;;;;18.13;7.70;;;3.60;99.90;;;;;;5035041;28;20403;-83
2021/12/09 14:20:19;;;;;;;18.02;8.05;;;3.60;99.90;;;;;;5067916;28;20058;-83
2021/12/09 14:22:49;;;;;;;22.25;9.65;;;3.60;99.90;;;;;;5065965;28;20052;-83